sensor_id;sensor_type;location;lat;lon;timestamp;P1;durP1;ratioP1;P2;durP2;ratioP2
5452;SDS011;2749;53.576;9.822;2023-11-19T00:01:49;5.43;;;4.93;;
5452;SDS011;2749;53.576;9.822;2023-11-19T00:04:15;4.80;;;4.37;;
5452;SDS011;2749;53.576;9.822;2023-11-19T00:06:41;8.50;;;6.10;;
5452;SDS011;2749;53.576;9.822;2023-11-19T00:09:07;5.60;;;4.37;;
5452;SDS011;2749;53.576;9.822;2023-11-19T00:11:33;7.10;;;5.37;;
5452;SDS011;2749;53.576;9.822;2023-11-19T00:13:59;6.10;;;4.30;;
5452;SDS011;2749;53.576;9.822;2023-11-19T00:16:24;7.90;;;5.40;;
5452;SDS011;2749;53.576;9.822;2023-11-19T00:18:50;4.13;;;3.53;;
5452;SDS011;2749;53.576;9.822;2023-11-19T00:21:17;4.30;;;3.90;;
5452;SDS011;2749;53.576;9.822;2023-11-19T00:23:43;5.43;;;4.93;;
5452;SDS011;2749;53.576;9.822;2023-11-19T00:26:09;4.80;;;4.27;;
5452;SDS011;2749;53.576;9.822;2023-11-19T00:28:35;5.77;;;5.17;;
5452;SDS011;2749;53.576;9.822;2023-11-19T00:31:03;5.20;;;4.20;;
5452;SDS011;2749;53.576;9.822;2023-11-19T00:33:29;5.70;;;4.47;;
5452;SDS011;2749;53.576;9.822;2023-11-19T00:35:56;4.80;;;4.27;;
5452;SDS011;2749;53.576;9.822;2023-11-19T00:38:22;3.73;;;3.33;;
5452;SDS011;2749;53.576;9.822;2023-11-19T00:40:48;4.47;;;4.07;;
5452;SDS011;2749;53.576;9.822;2023-11-19T00:43:13;5.57;;;4.53;;
5452;SDS011;2749;53.576;9.822;2023-11-19T00:45:39;4.33;;;3.50;;
5452;SDS011;2749;53.576;9.822;2023-11-19T00:48:05;4.87;;;4.37;;
5452;SDS011;2749;53.576;9.822;2023-11-19T00:50:31;4.00;;;3.33;;
5452;SDS011;2749;53.576;9.822;2023-11-19T00:52:57;2.63;;;2.37;;
5452;SDS011;2749;53.576;9.822;2023-11-19T00:55:23;3.53;;;3.23;;
5452;SDS011;2749;53.576;9.822;2023-11-19T00:57:49;3.47;;;3.17;;
5452;SDS011;2749;53.576;9.822;2023-11-19T01:00:15;3.33;;;2.93;;
5452;SDS011;2749;53.576;9.822;2023-11-19T01:02:45;3.57;;;3.27;;
5452;SDS011;2749;53.576;9.822;2023-11-19T01:05:11;4.63;;;2.83;;
5452;SDS011;2749;53.576;9.822;2023-11-19T01:07:40;3.00;;;2.57;;
5452;SDS011;2749;53.576;9.822;2023-11-19T01:10:06;2.10;;;1.87;;
5452;SDS011;2749;53.576;9.822;2023-11-19T01:12:33;3.30;;;3.00;;
5452;SDS011;2749;53.576;9.822;2023-11-19T01:14:59;3.10;;;2.80;;
5452;SDS011;2749;53.576;9.822;2023-11-19T01:17:26;5.53;;;3.17;;
5452;SDS011;2749;53.576;9.822;2023-11-19T01:19:51;4.87;;;3.30;;
5452;SDS011;2749;53.576;9.822;2023-11-19T01:22:17;3.77;;;3.07;;
5452;SDS011;2749;53.576;9.822;2023-11-19T01:24:44;2.67;;;2.37;;
5452;SDS011;2749;53.576;9.822;2023-11-19T01:27:09;2.70;;;2.47;;
5452;SDS011;2749;53.576;9.822;2023-11-19T01:29:35;3.73;;;2.70;;
5452;SDS011;2749;53.576;9.822;2023-11-19T01:32:03;3.20;;;2.50;;
5452;SDS011;2749;53.576;9.822;2023-11-19T01:34:29;4.90;;;3.90;;
5452;SDS011;2749;53.576;9.822;2023-11-19T01:36:55;3.60;;;3.03;;
5452;SDS011;2749;53.576;9.822;2023-11-19T01:39:21;3.50;;;2.80;;
5452;SDS011;2749;53.576;9.822;2023-11-19T01:41:47;5.50;;;3.00;;
5452;SDS011;2749;53.576;9.822;2023-11-19T01:44:13;3.13;;;2.30;;
5452;SDS011;2749;53.576;9.822;2023-11-19T01:46:43;3.37;;;2.43;;
5452;SDS011;2749;53.576;9.822;2023-11-19T01:49:10;2.60;;;1.97;;
5452;SDS011;2749;53.576;9.822;2023-11-19T01:51:36;3.90;;;2.13;;
5452;SDS011;2749;53.576;9.822;2023-11-19T01:54:03;1.70;;;1.47;;
5452;SDS011;2749;53.576;9.822;2023-11-19T01:56:29;2.33;;;1.40;;
5452;SDS011;2749;53.576;9.822;2023-11-19T01:58:56;2.80;;;1.80;;
5452;SDS011;2749;53.576;9.822;2023-11-19T02:01:22;1.60;;;1.50;;
5452;SDS011;2749;53.576;9.822;2023-11-19T02:03:49;1.87;;;1.67;;
5452;SDS011;2749;53.576;9.822;2023-11-19T02:06:15;2.10;;;1.57;;
5452;SDS011;2749;53.576;9.822;2023-11-19T02:08:41;2.40;;;1.87;;
5452;SDS011;2749;53.576;9.822;2023-11-19T02:11:08;1.73;;;1.63;;
5452;SDS011;2749;53.576;9.822;2023-11-19T02:13:34;1.73;;;1.30;;
5452;SDS011;2749;53.576;9.822;2023-11-19T02:16:03;2.10;;;1.40;;
5452;SDS011;2749;53.576;9.822;2023-11-19T02:18:31;1.30;;;1.20;;
5452;SDS011;2749;53.576;9.822;2023-11-19T02:20:58;1.50;;;1.33;;
5452;SDS011;2749;53.576;9.822;2023-11-19T02:23:25;1.20;;;1.10;;
5452;SDS011;2749;53.576;9.822;2023-11-19T02:28:18;1.60;;;1.40;;
5452;SDS011;2749;53.576;9.822;2023-11-19T02:30:45;2.17;;;1.30;;
5452;SDS011;2749;53.576;9.822;2023-11-19T02:33:11;2.03;;;1.40;;
5452;SDS011;2749;53.576;9.822;2023-11-19T02:35:37;1.77;;;1.67;;
5452;SDS011;2749;53.576;9.822;2023-11-19T02:38:05;1.90;;;1.30;;
5452;SDS011;2749;53.576;9.822;2023-11-19T02:40:32;1.50;;;1.10;;
5452;SDS011;2749;53.576;9.822;2023-11-19T02:42:58;1.20;;;1.10;;
5452;SDS011;2749;53.576;9.822;2023-11-19T02:45:25;1.10;;;0.90;;
5452;SDS011;2749;53.576;9.822;2023-11-19T02:47:51;1.70;;;1.07;;
5452;SDS011;2749;53.576;9.822;2023-11-19T02:50:18;1.37;;;1.20;;
5452;SDS011;2749;53.576;9.822;2023-11-19T02:52:50;1.03;;;0.93;;
5452;SDS011;2749;53.576;9.822;2023-11-19T02:55:17;1.40;;;1.30;;
5452;SDS011;2749;53.576;9.822;2023-11-19T02:57:43;1.20;;;1.10;;
5452;SDS011;2749;53.576;9.822;2023-11-19T03:00:16;1.37;;;1.10;;
5452;SDS011;2749;53.576;9.822;2023-11-19T03:02:42;1.53;;;1.43;;
5452;SDS011;2749;53.576;9.822;2023-11-19T03:05:13;1.63;;;1.53;;
5452;SDS011;2749;53.576;9.822;2023-11-19T03:07:40;2.33;;;1.50;;
5452;SDS011;2749;53.576;9.822;2023-11-19T03:10:07;1.83;;;1.73;;
5452;SDS011;2749;53.576;9.822;2023-11-19T03:12:34;1.70;;;1.60;;
5452;SDS011;2749;53.576;9.822;2023-11-19T03:15:00;3.73;;;3.43;;
5452;SDS011;2749;53.576;9.822;2023-11-19T03:17:26;2.87;;;2.63;;
5452;SDS011;2749;53.576;9.822;2023-11-19T03:19:52;4.67;;;2.80;;
5452;SDS011;2749;53.576;9.822;2023-11-19T03:22:18;3.03;;;2.73;;
5452;SDS011;2749;53.576;9.822;2023-11-19T03:24:45;2.93;;;2.30;;
5452;SDS011;2749;53.576;9.822;2023-11-19T03:27:11;2.60;;;2.40;;
5452;SDS011;2749;53.576;9.822;2023-11-19T03:29:37;3.40;;;3.10;;
5452;SDS011;2749;53.576;9.822;2023-11-19T03:32:03;2.70;;;2.27;;
5452;SDS011;2749;53.576;9.822;2023-11-19T03:34:29;4.60;;;2.93;;
5452;SDS011;2749;53.576;9.822;2023-11-19T03:36:55;3.20;;;3.00;;
5452;SDS011;2749;53.576;9.822;2023-11-19T03:39:22;2.83;;;2.63;;
5452;SDS011;2749;53.576;9.822;2023-11-19T03:41:50;3.27;;;2.97;;
5452;SDS011;2749;53.576;9.822;2023-11-19T03:44:16;2.87;;;2.67;;
5452;SDS011;2749;53.576;9.822;2023-11-19T03:46:41;3.57;;;3.27;;
5452;SDS011;2749;53.576;9.822;2023-11-19T03:49:08;3.53;;;2.90;;
5452;SDS011;2749;53.576;9.822;2023-11-19T03:51:33;3.57;;;3.27;;
5452;SDS011;2749;53.576;9.822;2023-11-19T03:54:00;4.17;;;3.77;;
5452;SDS011;2749;53.576;9.822;2023-11-19T03:56:26;3.30;;;3.00;;
5452;SDS011;2749;53.576;9.822;2023-11-19T03:58:52;4.77;;;4.30;;
5452;SDS011;2749;53.576;9.822;2023-11-19T04:01:18;3.80;;;3.50;;
5452;SDS011;2749;53.576;9.822;2023-11-19T04:03:44;5.40;;;3.73;;
5452;SDS011;2749;53.576;9.822;2023-11-19T04:06:10;4.33;;;3.93;;
5452;SDS011;2749;53.576;9.822;2023-11-19T04:08:36;4.97;;;3.70;;
5452;SDS011;2749;53.576;9.822;2023-11-19T04:11:04;4.63;;;4.20;;
5452;SDS011;2749;53.576;9.822;2023-11-19T04:13:30;6.10;;;5.13;;
5452;SDS011;2749;53.576;9.822;2023-11-19T04:15:57;5.93;;;4.77;;
5452;SDS011;2749;53.576;9.822;2023-11-19T04:18:23;6.10;;;5.60;;
5452;SDS011;2749;53.576;9.822;2023-11-19T04:20:49;6.80;;;6.17;;
5452;SDS011;2749;53.576;9.822;2023-11-19T04:23:16;6.73;;;6.03;;
5452;SDS011;2749;53.576;9.822;2023-11-19T04:25:42;8.40;;;7.10;;
5452;SDS011;2749;53.576;9.822;2023-11-19T04:28:08;9.13;;;6.83;;
5452;SDS011;2749;53.576;9.822;2023-11-19T04:30:34;10.93;;;7.83;;
5452;SDS011;2749;53.576;9.822;2023-11-19T04:33:00;20.73;;;10.23;;
5452;SDS011;2749;53.576;9.822;2023-11-19T04:35:26;12.17;;;8.50;;
5452;SDS011;2749;53.576;9.822;2023-11-19T04:37:52;10.30;;;8.73;;
5452;SDS011;2749;53.576;9.822;2023-11-19T04:40:18;9.60;;;8.60;;
5452;SDS011;2749;53.576;9.822;2023-11-19T04:42:44;15.13;;;10.50;;
5452;SDS011;2749;53.576;9.822;2023-11-19T04:45:10;12.67;;;10.40;;
5452;SDS011;2749;53.576;9.822;2023-11-19T04:47:36;13.03;;;10.47;;
5452;SDS011;2749;53.576;9.822;2023-11-19T04:50:02;12.97;;;10.43;;
5452;SDS011;2749;53.576;9.822;2023-11-19T04:52:28;16.83;;;11.87;;
5452;SDS011;2749;53.576;9.822;2023-11-19T04:54:54;13.53;;;11.23;;
5452;SDS011;2749;53.576;9.822;2023-11-19T04:57:20;17.43;;;11.33;;
5452;SDS011;2749;53.576;9.822;2023-11-19T04:59:46;17.60;;;12.63;;
5452;SDS011;2749;53.576;9.822;2023-11-19T05:02:12;18.77;;;13.90;;
5452;SDS011;2749;53.576;9.822;2023-11-19T05:04:42;19.03;;;14.07;;
5452;SDS011;2749;53.576;9.822;2023-11-19T05:07:11;22.93;;;14.80;;
5452;SDS011;2749;53.576;9.822;2023-11-19T05:09:37;19.70;;;13.93;;
5452;SDS011;2749;53.576;9.822;2023-11-19T05:12:03;22.60;;;16.63;;
5452;SDS011;2749;53.576;9.822;2023-11-19T05:14:29;24.20;;;16.63;;
5452;SDS011;2749;53.576;9.822;2023-11-19T05:16:55;25.87;;;15.23;;
5452;SDS011;2749;53.576;9.822;2023-11-19T05:19:21;25.33;;;16.93;;
5452;SDS011;2749;53.576;9.822;2023-11-19T05:21:47;25.20;;;16.47;;
5452;SDS011;2749;53.576;9.822;2023-11-19T05:24:14;22.00;;;16.70;;
5452;SDS011;2749;53.576;9.822;2023-11-19T05:26:40;25.90;;;19.03;;
5452;SDS011;2749;53.576;9.822;2023-11-19T05:29:06;21.97;;;16.50;;
5452;SDS011;2749;53.576;9.822;2023-11-19T05:31:32;25.13;;;17.10;;
5452;SDS011;2749;53.576;9.822;2023-11-19T05:33:57;25.20;;;17.73;;
5452;SDS011;2749;53.576;9.822;2023-11-19T05:36:23;33.73;;;17.87;;
5452;SDS011;2749;53.576;9.822;2023-11-19T05:38:49;28.07;;;17.63;;
5452;SDS011;2749;53.576;9.822;2023-11-19T05:41:15;26.47;;;18.10;;
5452;SDS011;2749;53.576;9.822;2023-11-19T05:43:41;23.07;;;16.60;;
5452;SDS011;2749;53.576;9.822;2023-11-19T05:46:07;21.97;;;15.20;;
5452;SDS011;2749;53.576;9.822;2023-11-19T05:48:34;29.57;;;18.10;;
5452;SDS011;2749;53.576;9.822;2023-11-19T05:51:00;24.93;;;16.77;;
5452;SDS011;2749;53.576;9.822;2023-11-19T05:53:25;35.00;;;16.63;;
5452;SDS011;2749;53.576;9.822;2023-11-19T05:55:51;23.60;;;16.00;;
5452;SDS011;2749;53.576;9.822;2023-11-19T05:58:24;27.70;;;17.73;;
5452;SDS011;2749;53.576;9.822;2023-11-19T06:00:54;47.60;;;18.23;;
5452;SDS011;2749;53.576;9.822;2023-11-19T06:03:20;24.87;;;16.70;;
5452;SDS011;2749;53.576;9.822;2023-11-19T06:05:47;29.87;;;18.67;;
5452;SDS011;2749;53.576;9.822;2023-11-19T06:08:13;33.27;;;16.57;;
5452;SDS011;2749;53.576;9.822;2023-11-19T06:10:40;30.40;;;17.30;;
5452;SDS011;2749;53.576;9.822;2023-11-19T06:13:06;22.93;;;17.37;;
5452;SDS011;2749;53.576;9.822;2023-11-19T06:15:34;25.17;;;14.77;;
5452;SDS011;2749;53.576;9.822;2023-11-19T06:18:01;27.67;;;15.37;;
5452;SDS011;2749;53.576;9.822;2023-11-19T06:20:28;37.30;;;16.47;;
5452;SDS011;2749;53.576;9.822;2023-11-19T06:22:54;30.70;;;15.47;;
5452;SDS011;2749;53.576;9.822;2023-11-19T06:25:20;23.87;;;13.87;;
5452;SDS011;2749;53.576;9.822;2023-11-19T06:27:46;28.10;;;13.60;;
5452;SDS011;2749;53.576;9.822;2023-11-19T06:30:12;28.50;;;13.67;;
5452;SDS011;2749;53.576;9.822;2023-11-19T06:32:38;25.87;;;12.43;;
5452;SDS011;2749;53.576;9.822;2023-11-19T06:35:04;29.17;;;13.83;;
5452;SDS011;2749;53.576;9.822;2023-11-19T06:37:31;27.17;;;13.73;;
5452;SDS011;2749;53.576;9.822;2023-11-19T06:39:57;29.10;;;12.57;;
5452;SDS011;2749;53.576;9.822;2023-11-19T06:42:23;24.80;;;11.27;;
5452;SDS011;2749;53.576;9.822;2023-11-19T06:44:49;28.30;;;12.07;;
5452;SDS011;2749;53.576;9.822;2023-11-19T06:47:14;23.37;;;11.40;;
5452;SDS011;2749;53.576;9.822;2023-11-19T06:49:43;21.93;;;10.60;;
5452;SDS011;2749;53.576;9.822;2023-11-19T06:52:09;33.53;;;12.37;;
5452;SDS011;2749;53.576;9.822;2023-11-19T06:54:35;33.73;;;11.20;;
5452;SDS011;2749;53.576;9.822;2023-11-19T06:57:01;26.97;;;11.40;;
5452;SDS011;2749;53.576;9.822;2023-11-19T06:59:28;25.47;;;11.00;;
5452;SDS011;2749;53.576;9.822;2023-11-19T07:01:54;24.87;;;12.33;;
5452;SDS011;2749;53.576;9.822;2023-11-19T07:04:21;31.63;;;10.57;;
5452;SDS011;2749;53.576;9.822;2023-11-19T07:06:47;24.80;;;9.60;;
5452;SDS011;2749;53.576;9.822;2023-11-19T07:09:13;22.73;;;10.00;;
5452;SDS011;2749;53.576;9.822;2023-11-19T07:11:40;18.97;;;9.87;;
5452;SDS011;2749;53.576;9.822;2023-11-19T07:14:07;23.30;;;8.80;;
5452;SDS011;2749;53.576;9.822;2023-11-19T07:16:33;26.67;;;9.13;;
5452;SDS011;2749;53.576;9.822;2023-11-19T07:18:59;22.87;;;7.70;;
5452;SDS011;2749;53.576;9.822;2023-11-19T07:21:25;14.97;;;6.60;;
5452;SDS011;2749;53.576;9.822;2023-11-19T07:23:53;30.53;;;11.00;;
5452;SDS011;2749;53.576;9.822;2023-11-19T07:26:19;17.70;;;7.60;;
5452;SDS011;2749;53.576;9.822;2023-11-19T07:28:45;18.00;;;6.70;;
5452;SDS011;2749;53.576;9.822;2023-11-19T07:31:13;13.77;;;5.77;;
5452;SDS011;2749;53.576;9.822;2023-11-19T07:33:39;18.20;;;5.90;;
5452;SDS011;2749;53.576;9.822;2023-11-19T07:36:07;23.43;;;6.30;;
5452;SDS011;2749;53.576;9.822;2023-11-19T07:38:33;16.83;;;5.60;;
5452;SDS011;2749;53.576;9.822;2023-11-19T07:40:59;21.50;;;7.60;;
5452;SDS011;2749;53.576;9.822;2023-11-19T07:43:25;16.90;;;6.93;;
5452;SDS011;2749;53.576;9.822;2023-11-19T07:45:51;30.13;;;7.27;;
5452;SDS011;2749;53.576;9.822;2023-11-19T07:48:17;32.60;;;9.30;;
5452;SDS011;2749;53.576;9.822;2023-11-19T07:50:48;27.20;;;8.00;;
5452;SDS011;2749;53.576;9.822;2023-11-19T07:53:15;25.87;;;7.10;;
5452;SDS011;2749;53.576;9.822;2023-11-19T07:55:41;23.23;;;6.27;;
5452;SDS011;2749;53.576;9.822;2023-11-19T07:58:08;20.53;;;8.57;;
5452;SDS011;2749;53.576;9.822;2023-11-19T08:00:34;24.47;;;7.40;;
5452;SDS011;2749;53.576;9.822;2023-11-19T08:03:00;25.87;;;7.97;;
5452;SDS011;2749;53.576;9.822;2023-11-19T08:05:26;28.10;;;7.07;;
5452;SDS011;2749;53.576;9.822;2023-11-19T08:07:52;25.63;;;9.20;;
5452;SDS011;2749;53.576;9.822;2023-11-19T08:10:19;18.40;;;7.50;;
5452;SDS011;2749;53.576;9.822;2023-11-19T08:12:45;23.13;;;7.50;;
5452;SDS011;2749;53.576;9.822;2023-11-19T08:15:11;29.57;;;7.67;;
5452;SDS011;2749;53.576;9.822;2023-11-19T08:17:37;27.07;;;6.80;;
5452;SDS011;2749;53.576;9.822;2023-11-19T08:20:03;21.63;;;7.10;;
5452;SDS011;2749;53.576;9.822;2023-11-19T08:22:30;30.43;;;7.47;;
5452;SDS011;2749;53.576;9.822;2023-11-19T08:24:55;17.57;;;5.67;;
5452;SDS011;2749;53.576;9.822;2023-11-19T08:27:22;22.87;;;6.40;;
5452;SDS011;2749;53.576;9.822;2023-11-19T08:29:54;17.87;;;5.30;;
5452;SDS011;2749;53.576;9.822;2023-11-19T08:32:23;19.37;;;6.87;;
5452;SDS011;2749;53.576;9.822;2023-11-19T08:34:49;22.63;;;6.93;;
5452;SDS011;2749;53.576;9.822;2023-11-19T08:37:16;28.27;;;7.00;;
5452;SDS011;2749;53.576;9.822;2023-11-19T08:39:48;18.30;;;5.60;;
5452;SDS011;2749;53.576;9.822;2023-11-19T08:42:14;24.40;;;7.30;;
5452;SDS011;2749;53.576;9.822;2023-11-19T08:44:40;29.07;;;6.90;;
5452;SDS011;2749;53.576;9.822;2023-11-19T08:47:08;24.33;;;7.67;;
5452;SDS011;2749;53.576;9.822;2023-11-19T08:49:34;16.83;;;7.23;;
5452;SDS011;2749;53.576;9.822;2023-11-19T08:52:01;24.33;;;9.17;;
5452;SDS011;2749;53.576;9.822;2023-11-19T08:54:27;29.43;;;7.67;;
5452;SDS011;2749;53.576;9.822;2023-11-19T08:56:52;23.13;;;7.20;;
5452;SDS011;2749;53.576;9.822;2023-11-19T08:59:18;23.43;;;6.87;;
5452;SDS011;2749;53.576;9.822;2023-11-19T09:01:44;21.80;;;7.97;;
5452;SDS011;2749;53.576;9.822;2023-11-19T09:04:10;21.33;;;7.47;;
5452;SDS011;2749;53.576;9.822;2023-11-19T09:06:36;17.37;;;6.97;;
5452;SDS011;2749;53.576;9.822;2023-11-19T09:09:02;14.73;;;5.60;;
5452;SDS011;2749;53.576;9.822;2023-11-19T09:11:30;25.57;;;8.43;;
5452;SDS011;2749;53.576;9.822;2023-11-19T09:13:56;20.23;;;5.97;;
5452;SDS011;2749;53.576;9.822;2023-11-19T09:16:22;23.23;;;7.00;;
5452;SDS011;2749;53.576;9.822;2023-11-19T09:18:49;28.27;;;6.57;;
5452;SDS011;2749;53.576;9.822;2023-11-19T09:21:15;31.70;;;7.30;;
5452;SDS011;2749;53.576;9.822;2023-11-19T09:23:41;17.93;;;5.43;;
5452;SDS011;2749;53.576;9.822;2023-11-19T09:26:08;24.70;;;7.23;;
5452;SDS011;2749;53.576;9.822;2023-11-19T09:28:37;37.47;;;6.50;;
5452;SDS011;2749;53.576;9.822;2023-11-19T09:31:03;41.63;;;6.90;;
5452;SDS011;2749;53.576;9.822;2023-11-19T09:33:38;24.60;;;7.23;;
5452;SDS011;2749;53.576;9.822;2023-11-19T09:36:04;20.87;;;6.33;;
5452;SDS011;2749;53.576;9.822;2023-11-19T09:38:30;24.10;;;6.67;;
5452;SDS011;2749;53.576;9.822;2023-11-19T09:40:56;20.50;;;5.20;;
5452;SDS011;2749;53.576;9.822;2023-11-19T09:43:24;32.93;;;8.00;;
5452;SDS011;2749;53.576;9.822;2023-11-19T09:45:51;22.83;;;6.60;;
5452;SDS011;2749;53.576;9.822;2023-11-19T09:48:17;24.20;;;6.37;;
5452;SDS011;2749;53.576;9.822;2023-11-19T09:50:47;23.20;;;6.67;;
5452;SDS011;2749;53.576;9.822;2023-11-19T09:53:13;20.17;;;7.00;;
5452;SDS011;2749;53.576;9.822;2023-11-19T09:55:40;19.10;;;8.07;;
5452;SDS011;2749;53.576;9.822;2023-11-19T09:58:06;20.23;;;5.30;;
5452;SDS011;2749;53.576;9.822;2023-11-19T10:00:33;24.23;;;6.47;;
5452;SDS011;2749;53.576;9.822;2023-11-19T10:02:59;27.93;;;6.47;;
5452;SDS011;2749;53.576;9.822;2023-11-19T10:05:25;25.00;;;7.53;;
5452;SDS011;2749;53.576;9.822;2023-11-19T10:07:52;19.60;;;6.10;;
5452;SDS011;2749;53.576;9.822;2023-11-19T10:10:18;28.23;;;8.33;;
5452;SDS011;2749;53.576;9.822;2023-11-19T10:12:45;21.03;;;6.23;;
5452;SDS011;2749;53.576;9.822;2023-11-19T10:15:19;28.27;;;7.17;;
5452;SDS011;2749;53.576;9.822;2023-11-19T10:17:46;18.30;;;5.17;;
5452;SDS011;2749;53.576;9.822;2023-11-19T10:20:12;28.03;;;9.73;;
5452;SDS011;2749;53.576;9.822;2023-11-19T10:22:38;18.30;;;6.60;;
5452;SDS011;2749;53.576;9.822;2023-11-19T10:25:04;34.10;;;8.80;;
5452;SDS011;2749;53.576;9.822;2023-11-19T10:27:30;21.87;;;5.83;;
5452;SDS011;2749;53.576;9.822;2023-11-19T10:29:59;28.60;;;7.63;;
5452;SDS011;2749;53.576;9.822;2023-11-19T10:32:25;21.13;;;7.43;;
5452;SDS011;2749;53.576;9.822;2023-11-19T10:34:51;23.10;;;6.73;;
5452;SDS011;2749;53.576;9.822;2023-11-19T10:37:29;39.13;;;8.17;;
5452;SDS011;2749;53.576;9.822;2023-11-19T10:39:57;22.37;;;6.10;;
5452;SDS011;2749;53.576;9.822;2023-11-19T10:42:23;36.83;;;8.07;;
5452;SDS011;2749;53.576;9.822;2023-11-19T10:44:49;25.00;;;8.00;;
5452;SDS011;2749;53.576;9.822;2023-11-19T10:47:15;40.90;;;7.97;;
5452;SDS011;2749;53.576;9.822;2023-11-19T10:49:44;32.43;;;7.40;;
5452;SDS011;2749;53.576;9.822;2023-11-19T10:52:15;44.03;;;10.07;;
5452;SDS011;2749;53.576;9.822;2023-11-19T10:54:44;33.43;;;7.23;;
5452;SDS011;2749;53.576;9.822;2023-11-19T10:57:10;33.13;;;8.80;;
5452;SDS011;2749;53.576;9.822;2023-11-19T10:59:38;30.93;;;8.53;;
5452;SDS011;2749;53.576;9.822;2023-11-19T11:02:05;41.87;;;9.13;;
5452;SDS011;2749;53.576;9.822;2023-11-19T11:04:33;32.30;;;9.70;;
5452;SDS011;2749;53.576;9.822;2023-11-19T11:07:04;26.57;;;6.27;;
5452;SDS011;2749;53.576;9.822;2023-11-19T11:09:31;31.57;;;6.20;;
5452;SDS011;2749;53.576;9.822;2023-11-19T11:11:58;21.53;;;8.60;;
5452;SDS011;2749;53.576;9.822;2023-11-19T11:14:24;23.57;;;7.03;;
5452;SDS011;2749;53.576;9.822;2023-11-19T11:16:51;35.53;;;6.70;;
5452;SDS011;2749;53.576;9.822;2023-11-19T11:19:18;31.40;;;8.00;;
5452;SDS011;2749;53.576;9.822;2023-11-19T11:21:47;21.27;;;7.00;;
5452;SDS011;2749;53.576;9.822;2023-11-19T11:37:10;25.10;;;7.60;;
5452;SDS011;2749;53.576;9.822;2023-11-19T11:39:39;25.23;;;6.47;;
5452;SDS011;2749;53.576;9.822;2023-11-19T11:50:06;30.87;;;7.87;;
5452;SDS011;2749;53.576;9.822;2023-11-19T11:52:33;21.80;;;7.43;;
5452;SDS011;2749;53.576;9.822;2023-11-19T11:55:05;26.47;;;7.20;;
5452;SDS011;2749;53.576;9.822;2023-11-19T11:57:37;21.00;;;6.50;;
5452;SDS011;2749;53.576;9.822;2023-11-19T12:00:03;22.10;;;6.13;;
5452;SDS011;2749;53.576;9.822;2023-11-19T12:02:30;29.93;;;7.20;;
5452;SDS011;2749;53.576;9.822;2023-11-19T12:04:56;22.73;;;6.43;;
5452;SDS011;2749;53.576;9.822;2023-11-19T12:07:23;20.07;;;5.60;;
5452;SDS011;2749;53.576;9.822;2023-11-19T12:09:56;22.17;;;5.73;;
5452;SDS011;2749;53.576;9.822;2023-11-19T12:12:32;20.80;;;6.73;;
5452;SDS011;2749;53.576;9.822;2023-11-19T12:20:03;28.33;;;8.23;;
5452;SDS011;2749;53.576;9.822;2023-11-19T12:22:40;23.07;;;5.63;;
5452;SDS011;2749;53.576;9.822;2023-11-19T12:25:10;24.33;;;6.33;;
5452;SDS011;2749;53.576;9.822;2023-11-19T12:27:37;25.63;;;6.50;;
5452;SDS011;2749;53.576;9.822;2023-11-19T12:30:05;25.70;;;6.57;;
5452;SDS011;2749;53.576;9.822;2023-11-19T12:32:43;15.83;;;4.60;;
5452;SDS011;2749;53.576;9.822;2023-11-19T12:35:10;30.00;;;7.40;;
5452;SDS011;2749;53.576;9.822;2023-11-19T12:37:42;25.83;;;5.50;;
5452;SDS011;2749;53.576;9.822;2023-11-19T12:42:37;14.77;;;5.70;;
5452;SDS011;2749;53.576;9.822;2023-11-19T12:45:04;30.13;;;6.73;;
5452;SDS011;2749;53.576;9.822;2023-11-19T12:47:30;14.70;;;5.20;;
5452;SDS011;2749;53.576;9.822;2023-11-19T12:49:56;19.13;;;5.57;;
5452;SDS011;2749;53.576;9.822;2023-11-19T12:52:22;20.73;;;6.50;;
5452;SDS011;2749;53.576;9.822;2023-11-19T12:54:48;30.43;;;5.90;;
5452;SDS011;2749;53.576;9.822;2023-11-19T12:57:14;21.17;;;4.90;;
5452;SDS011;2749;53.576;9.822;2023-11-19T12:59:40;23.67;;;6.13;;
5452;SDS011;2749;53.576;9.822;2023-11-19T13:02:07;26.17;;;6.00;;
5452;SDS011;2749;53.576;9.822;2023-11-19T13:04:34;16.80;;;6.97;;
5452;SDS011;2749;53.576;9.822;2023-11-19T13:07:00;22.77;;;7.13;;
5452;SDS011;2749;53.576;9.822;2023-11-19T13:09:29;16.80;;;5.90;;
5452;SDS011;2749;53.576;9.822;2023-11-19T13:11:55;24.13;;;7.27;;
5452;SDS011;2749;53.576;9.822;2023-11-19T13:14:21;26.83;;;6.57;;
5452;SDS011;2749;53.576;9.822;2023-11-19T13:16:48;16.57;;;5.07;;
5452;SDS011;2749;53.576;9.822;2023-11-19T13:19:14;21.53;;;6.10;;
5452;SDS011;2749;53.576;9.822;2023-11-19T13:21:44;19.07;;;5.30;;
5452;SDS011;2749;53.576;9.822;2023-11-19T13:24:12;21.50;;;6.37;;
5452;SDS011;2749;53.576;9.822;2023-11-19T13:26:38;25.33;;;5.70;;
5452;SDS011;2749;53.576;9.822;2023-11-19T13:29:04;25.13;;;6.03;;
5452;SDS011;2749;53.576;9.822;2023-11-19T13:31:30;18.60;;;6.47;;
5452;SDS011;2749;53.576;9.822;2023-11-19T13:33:56;26.43;;;6.30;;
5452;SDS011;2749;53.576;9.822;2023-11-19T13:36:23;20.70;;;5.10;;
5452;SDS011;2749;53.576;9.822;2023-11-19T13:38:49;18.63;;;6.73;;
5452;SDS011;2749;53.576;9.822;2023-11-19T13:41:15;20.17;;;6.60;;
5452;SDS011;2749;53.576;9.822;2023-11-19T13:43:41;23.03;;;7.83;;
5452;SDS011;2749;53.576;9.822;2023-11-19T13:46:07;19.47;;;6.60;;
5452;SDS011;2749;53.576;9.822;2023-11-19T13:48:35;26.67;;;6.70;;
5452;SDS011;2749;53.576;9.822;2023-11-19T13:51:00;17.13;;;5.90;;
5452;SDS011;2749;53.576;9.822;2023-11-19T13:53:26;24.67;;;7.93;;
5452;SDS011;2749;53.576;9.822;2023-11-19T13:55:52;21.23;;;5.27;;
5452;SDS011;2749;53.576;9.822;2023-11-19T13:58:18;19.20;;;6.57;;
5452;SDS011;2749;53.576;9.822;2023-11-19T14:00:44;18.90;;;5.77;;
5452;SDS011;2749;53.576;9.822;2023-11-19T14:03:10;24.80;;;6.63;;
5452;SDS011;2749;53.576;9.822;2023-11-19T14:05:37;21.17;;;5.60;;
5452;SDS011;2749;53.576;9.822;2023-11-19T14:08:03;21.20;;;5.63;;
5452;SDS011;2749;53.576;9.822;2023-11-19T14:10:36;16.87;;;5.13;;
5452;SDS011;2749;53.576;9.822;2023-11-19T14:13:03;18.30;;;5.07;;
5452;SDS011;2749;53.576;9.822;2023-11-19T14:15:29;25.83;;;6.53;;
5452;SDS011;2749;53.576;9.822;2023-11-19T14:17:55;28.00;;;6.60;;
5452;SDS011;2749;53.576;9.822;2023-11-19T14:20:21;17.13;;;6.13;;
5452;SDS011;2749;53.576;9.822;2023-11-19T14:22:47;15.60;;;5.20;;
5452;SDS011;2749;53.576;9.822;2023-11-19T14:25:14;18.43;;;5.17;;
5452;SDS011;2749;53.576;9.822;2023-11-19T14:27:40;22.80;;;6.90;;
5452;SDS011;2749;53.576;9.822;2023-11-19T14:30:07;12.70;;;5.47;;
5452;SDS011;2749;53.576;9.822;2023-11-19T14:32:35;14.57;;;6.27;;
5452;SDS011;2749;53.576;9.822;2023-11-19T14:35:01;23.23;;;7.33;;
5452;SDS011;2749;53.576;9.822;2023-11-19T14:37:28;15.77;;;5.03;;
5452;SDS011;2749;53.576;9.822;2023-11-19T14:39:55;17.00;;;5.90;;
5452;SDS011;2749;53.576;9.822;2023-11-19T14:42:22;15.37;;;5.83;;
5452;SDS011;2749;53.576;9.822;2023-11-19T14:44:50;23.57;;;6.60;;
5452;SDS011;2749;53.576;9.822;2023-11-19T14:47:17;21.97;;;5.43;;
5452;SDS011;2749;53.576;9.822;2023-11-19T14:49:43;27.60;;;5.80;;
5452;SDS011;2749;53.576;9.822;2023-11-19T14:52:09;15.63;;;6.37;;
5452;SDS011;2749;53.576;9.822;2023-11-19T14:54:36;9.47;;;4.70;;
5452;SDS011;2749;53.576;9.822;2023-11-19T14:57:02;20.80;;;6.03;;
5452;SDS011;2749;53.576;9.822;2023-11-19T14:59:28;10.23;;;3.00;;
5452;SDS011;2749;53.576;9.822;2023-11-19T15:01:54;8.80;;;2.40;;
5452;SDS011;2749;53.576;9.822;2023-11-19T15:04:20;7.57;;;2.97;;
5452;SDS011;2749;53.576;9.822;2023-11-19T15:06:46;10.67;;;2.27;;
5452;SDS011;2749;53.576;9.822;2023-11-19T15:09:11;11.10;;;1.73;;
5452;SDS011;2749;53.576;9.822;2023-11-19T15:11:42;6.00;;;2.37;;
5452;SDS011;2749;53.576;9.822;2023-11-19T15:14:08;3.77;;;1.77;;
5452;SDS011;2749;53.576;9.822;2023-11-19T15:16:34;14.43;;;3.70;;
5452;SDS011;2749;53.576;9.822;2023-11-19T15:19:00;12.27;;;4.43;;
5452;SDS011;2749;53.576;9.822;2023-11-19T15:21:28;14.97;;;5.37;;
5452;SDS011;2749;53.576;9.822;2023-11-19T15:23:54;13.40;;;5.20;;
5452;SDS011;2749;53.576;9.822;2023-11-19T15:26:24;21.30;;;5.80;;
5452;SDS011;2749;53.576;9.822;2023-11-19T15:28:50;13.47;;;5.90;;
5452;SDS011;2749;53.576;9.822;2023-11-19T15:31:20;26.47;;;6.03;;